createdAt,value
2016-03-04T00:00:19.229Z,85.23
2016-03-04T00:01:19.216Z,85.13
2016-03-04T00:02:19.235Z,85.23
2016-03-04T00:03:19.222Z,85.42
2016-03-04T00:04:19.240Z,85.04
2016-03-04T00:05:19.226Z,85.23
2016-03-04T00:06:19.213Z,85.42
2016-03-04T00:07:19.232Z,85.23
2016-03-04T00:08:19.219Z,85.04
2016-03-04T00:09:19.222Z,85.13
2016-03-04T00:10:19.225Z,85.13
2016-03-04T00:11:19.227Z,85.23
2016-03-04T00:12:19.215Z,85.04
2016-03-04T00:13:19.217Z,85.23
2016-03-04T00:14:19.220Z,85.13
2016-03-04T00:15:19.223Z,84.85
2016-03-04T00:16:19.225Z,84.85
2016-03-04T00:17:19.228Z,85.32
2016-03-04T00:18:19.215Z,85.13
2016-03-04T00:19:19.217Z,85.23
2016-03-04T00:20:19.220Z,85.04
2016-03-04T00:21:19.223Z,85.13
2016-03-04T00:22:19.241Z,85.13
2016-03-04T00:23:19.212Z,85.13
2016-03-04T00:24:19.215Z,85.23
2016-03-04T00:25:19.203Z,84.85
2016-03-04T00:26:19.221Z,84.66
2016-03-04T00:27:19.207Z,84.85
2016-03-04T00:28:19.211Z,84.75
2016-03-04T00:29:19.213Z,85.13
2016-03-04T00:30:19.200Z,84.94
2016-03-04T00:31:19.051Z,85.32
2016-03-04T00:32:19.215Z,85.13
2016-03-04T00:33:19.218Z,85.32
2016-03-04T00:34:19.221Z,85.13
2016-03-04T00:35:19.208Z,85.13
2016-03-04T00:36:19.226Z,85.23
2016-03-04T00:37:19.212Z,85.32
2016-03-04T00:38:19.200Z,85.04
2016-03-04T00:39:19.219Z,85.04
2016-03-04T00:40:19.206Z,85.23
2016-03-04T00:41:19.209Z,85.23
2016-03-04T00:42:19.226Z,84.94
2016-03-04T00:43:19.214Z,84.94
2016-03-04T00:44:19.200Z,85.23
2016-03-04T00:45:19.203Z,85.32
2016-03-04T00:46:19.206Z,85.32
2016-03-04T00:47:19.225Z,85.13
2016-03-04T00:48:19.212Z,85.42
2016-03-04T00:49:19.214Z,85.32
2016-03-04T00:50:19.201Z,85.04
2016-03-04T00:51:19.203Z,85.13
2016-03-04T00:52:19.207Z,85.13
2016-03-04T00:53:19.194Z,85.23
2016-03-04T00:54:19.212Z,84.94
2016-03-04T00:55:19.200Z,84.94
2016-03-04T00:56:19.203Z,84.94
2016-03-04T00:57:19.205Z,84.94
2016-03-04T00:58:19.208Z,84.94
2016-03-04T00:59:19.195Z,84.85
2016-03-04T01:00:19.198Z,84.56
2016-03-04T01:01:19.200Z,84.85
2016-03-04T01:02:19.188Z,84.94
2016-03-04T01:03:19.191Z,84.47
2016-03-04T01:04:19.208Z,84.47
2016-03-04T01:05:19.197Z,84.66
2016-03-04T01:06:19.199Z,84.66
2016-03-04T01:07:19.186Z,84.66
2016-03-04T01:08:19.204Z,84.66
2016-03-04T01:09:19.191Z,84.66
2016-03-04T01:10:19.210Z,84.66
2016-03-04T01:11:19.197Z,84.85
2016-03-04T01:12:19.199Z,84.94
2016-03-04T01:13:19.186Z,84.66
2016-03-04T01:14:19.189Z,84.75
2016-03-04T01:15:19.191Z,84.56
2016-03-04T01:16:19.194Z,84.66
2016-03-04T01:17:19.197Z,84.56
2016-03-04T01:18:19.215Z,84.66
2016-03-04T01:19:19.184Z,84.75
2016-03-04T01:20:19.186Z,84.75
2016-03-04T01:21:19.190Z,84.75
2016-03-04T01:22:19.192Z,84.75
2016-03-04T01:23:19.195Z,84.66
2016-03-04T01:24:19.212Z,84.75
2016-03-04T01:25:19.184Z,84.85
2016-03-04T01:26:19.187Z,84.75
2016-03-04T01:27:19.190Z,84.85
2016-03-04T01:28:19.176Z,85.04
2016-03-04T01:29:19.179Z,85.04
2016-03-04T01:30:19.182Z,84.66
2016-03-04T01:31:19.184Z,84.56
2016-03-04T01:32:19.187Z,84.47
2016-03-04T01:33:19.175Z,84.38
2016-03-04T01:34:19.178Z,84.28
2016-03-04T01:35:19.180Z,84.38
2016-03-04T01:36:19.183Z,84.38
2016-03-04T01:37:19.185Z,84.28
2016-03-04T01:38:19.172Z,84.19
2016-03-04T01:39:19.190Z,84
2016-03-04T01:40:19.178Z,84.09
2016-03-04T01:41:19.180Z,84.19
2016-03-04T01:42:19.183Z,83.62
2016-03-04T01:43:19.185Z,83.52
2016-03-04T01:44:19.266Z,83.62
2016-03-04T01:45:19.254Z,83.24
2016-03-04T01:46:19.257Z,83.33
2016-03-04T01:47:19.244Z,83.52
2016-03-04T01:48:19.168Z,83.33
2016-03-04T01:49:19.171Z,83.62
2016-03-04T01:50:19.174Z,83.52
2016-03-04T01:51:19.176Z,83.52
2016-03-04T01:52:19.178Z,83.62
2016-03-04T01:53:19.166Z,83.52
2016-03-04T01:54:19.185Z,83.24
2016-03-04T01:55:19.171Z,83.14
2016-03-04T01:56:19.173Z,82.86
2016-03-04T01:57:19.176Z,82.76
2016-03-04T01:58:19.164Z,83.05
2016-03-04T01:59:19.166Z,82.48
2016-03-04T02:00:19.169Z,82.76
2016-03-04T02:01:19.172Z,82.48
2016-03-04T02:02:19.175Z,82.67
2016-03-04T02:03:19.161Z,82.86
2016-03-04T02:04:19.165Z,82.67
2016-03-04T02:05:19.167Z,82.86
2016-03-04T02:06:19.169Z,82.86
2016-03-04T02:07:19.172Z,82.2
2016-03-04T02:08:19.174Z,82.2
2016-03-04T02:09:19.161Z,82.2
2016-03-04T02:10:19.164Z,82.2
2016-03-04T02:11:19.166Z,82.2
2016-03-04T02:12:19.169Z,82.48
2016-03-04T02:13:19.172Z,82.48
2016-03-04T02:14:19.159Z,82.48
2016-03-04T02:15:19.162Z,82.29
2016-03-04T02:16:19.165Z,82.01
2016-03-04T02:17:19.168Z,82.01
2016-03-04T02:18:19.154Z,81.92
2016-03-04T02:19:19.173Z,82.01
2016-03-04T02:20:19.160Z,82.01
2016-03-04T02:21:19.162Z,82.29
2016-03-04T02:22:19.165Z,81.63
2016-03-04T02:23:19.167Z,81.44
2016-03-04T02:24:19.155Z,81.34
2016-03-04T02:25:19.158Z,81.53
2016-03-04T02:26:19.161Z,81.53
2016-03-04T02:27:19.152Z,81.72
2016-03-04T02:28:19.155Z,81.15
2016-03-04T02:29:19.157Z,80.74
2016-03-04T02:30:19.160Z,80.87
2016-03-04T02:31:19.163Z,80.74
2016-03-04T02:32:19.150Z,80.3
2016-03-04T02:33:19.152Z,80.74
2016-03-04T02:34:19.155Z,80.83
2016-03-04T02:35:19.158Z,80.83
2016-03-04T02:36:19.161Z,80.26
2016-03-04T02:37:19.163Z,80.26
2016-03-04T02:38:19.166Z,80.17
2016-03-04T02:39:19.168Z,80.17
2016-03-04T02:40:19.156Z,79.98
2016-03-04T02:41:19.143Z,80.26
2016-03-04T02:42:19.145Z,79.98
2016-03-04T02:43:19.148Z,79.98
2016-03-04T02:44:19.151Z,79.98
2016-03-04T02:45:19.153Z,79.98
2016-03-04T02:46:19.140Z,79.32
2016-03-04T02:47:19.143Z,79.98
2016-03-04T02:48:19.145Z,79.88
2016-03-04T02:49:19.148Z,79.98
2016-03-04T02:50:19.151Z,80.07
2016-03-04T02:51:19.154Z,79.88
2016-03-04T02:52:19.141Z,80.32
2016-03-04T02:53:19.144Z,80.17
2016-03-04T02:54:19.146Z,80.83
2016-03-04T02:55:19.149Z,81.02
2016-03-04T02:56:19.152Z,81.02
2016-03-04T02:57:19.139Z,81.02
2016-03-04T02:58:19.142Z,80.83
2016-03-04T02:59:19.160Z,80.93
2016-03-04T03:00:19.147Z,80.69
2016-03-04T03:01:19.150Z,80.51
2016-03-04T03:02:19.153Z,80.6
2016-03-04T03:03:19.139Z,80.51
2016-03-04T03:04:19.142Z,80.6
2016-03-04T03:05:19.144Z,80.41
2016-03-04T03:06:19.147Z,80.41
2016-03-04T03:07:19.165Z,80.51
2016-03-04T03:08:19.137Z,80.32
2016-03-04T03:09:19.140Z,80.13
2016-03-04T03:10:19.143Z,80.22
2016-03-04T03:11:19.146Z,80.41
2016-03-04T03:12:19.148Z,80.41
2016-03-04T03:13:19.134Z,80.51
2016-03-04T03:14:19.184Z,80.98
2016-03-04T03:15:19.141Z,80.69
2016-03-04T03:16:19.128Z,80.65
2016-03-04T03:17:19.130Z,80.75
2016-03-04T03:18:19.133Z,81.03
2016-03-04T03:19:19.136Z,81.03
2016-03-04T03:20:19.122Z,81.41
2016-03-04T03:21:19.125Z,81.22
2016-03-04T03:22:19.128Z,81.32
2016-03-04T03:23:19.131Z,81.13
2016-03-04T03:24:19.133Z,81.79
2016-03-04T03:25:19.120Z,81.32
2016-03-04T03:26:19.122Z,81.22
2016-03-04T03:27:19.125Z,81.88
2016-03-04T03:28:19.145Z,81.6
2016-03-04T03:29:19.131Z,81.84
2016-03-04T03:30:19.134Z,82.41
2016-03-04T03:31:19.136Z,82.03
2016-03-04T03:32:19.124Z,82.22
2016-03-04T03:33:19.126Z,82.6
2016-03-04T03:34:19.129Z,82.6
2016-03-04T03:35:19.116Z,82.5
2016-03-04T03:36:19.135Z,82.41
2016-03-04T03:37:19.121Z,82.79
2016-03-04T03:38:19.124Z,82.79
2016-03-04T03:39:19.126Z,83.45
2016-03-04T03:40:19.129Z,83.26
2016-03-04T03:41:19.117Z,83.54
2016-03-04T03:42:19.135Z,83.45
2016-03-04T03:43:19.122Z,83.26
2016-03-04T03:44:19.124Z,83.73
2016-03-04T03:45:19.127Z,83.36
2016-03-04T03:46:19.129Z,83.83
2016-03-04T03:47:19.117Z,83.92
2016-03-04T03:48:19.120Z,83.92
2016-03-04T03:49:19.123Z,83.92
2016-03-04T03:50:19.110Z,84.3
2016-03-04T03:51:19.112Z,84.2
2016-03-04T03:52:19.114Z,84.11
2016-03-04T03:53:19.117Z,84.58
2016-03-04T03:54:19.106Z,84.68
2016-03-04T03:55:19.107Z,84.86
2016-03-04T03:56:19.110Z,84.54
2016-03-04T03:57:19.113Z,84.16
2016-03-04T03:58:19.116Z,84.54
2016-03-04T03:59:19.102Z,84.92
2016-03-04T04:00:19.105Z,84.54
2016-03-04T04:01:19.108Z,84.73
2016-03-04T04:02:19.110Z,85.11
2016-03-04T04:03:19.097Z,85.2
2016-03-04T04:04:19.116Z,85.11
2016-03-04T04:05:19.102Z,85.58
2016-03-04T04:06:19.105Z,85.58
2016-03-04T04:07:19.093Z,85.49
2016-03-04T04:08:19.143Z,85.2
2016-03-04T04:09:19.099Z,85.11
2016-03-04T04:10:19.101Z,85.49
2016-03-04T04:11:19.088Z,85.39
2016-03-04T04:12:19.090Z,85.2
2016-03-04T04:13:19.093Z,85.39
2016-03-04T04:14:19.095Z,84.92
2016-03-04T04:15:19.083Z,85.11
2016-03-04T04:16:19.102Z,85.3
2016-03-04T04:17:19.088Z,85.49
2016-03-04T04:18:19.091Z,85.39
2016-03-04T04:19:19.093Z,85.58
2016-03-04T04:20:19.096Z,85.39
2016-03-04T04:21:19.098Z,85.96
2016-03-04T04:22:19.087Z,85.39
2016-03-04T04:23:19.089Z,85.49
2016-03-04T04:24:19.092Z,85.39
2016-03-04T04:25:19.094Z,85.68
2016-03-04T04:26:19.081Z,85.68
2016-03-04T04:27:19.083Z,85.96
2016-03-04T04:28:19.072Z,86.33
2016-03-04T04:29:19.075Z,86.05
2016-03-04T04:30:19.077Z,85.96
2016-03-04T04:31:19.079Z,86.52
2016-03-04T04:32:19.082Z,86.43
2016-03-04T04:33:19.085Z,86.33
2016-03-04T04:34:19.071Z,86.62
2016-03-04T04:35:19.074Z,86.8
2016-03-04T04:36:19.077Z,86.52
2016-03-04T04:37:19.080Z,86.33
2016-03-04T04:38:19.066Z,86.52
2016-03-04T04:39:19.069Z,86.33
2016-03-04T04:40:19.071Z,86.9
2016-03-04T04:41:19.074Z,86.99
2016-03-04T04:42:19.077Z,87.28
2016-03-04T04:43:19.064Z,87.28
2016-03-04T04:44:19.068Z,86.71
2016-03-04T04:45:19.054Z,87.28
2016-03-04T04:46:19.057Z,86.9
2016-03-04T04:47:19.059Z,86.86
2016-03-04T04:48:19.063Z,87.18
2016-03-04T04:49:19.065Z,87.09
2016-03-04T04:50:19.052Z,87.18
2016-03-04T04:51:19.054Z,87.33
2016-03-04T04:52:19.057Z,87.52
2016-03-04T04:53:19.060Z,87.33
2016-03-04T04:54:18.932Z,87.05
2016-03-04T04:55:19.048Z,87.14
2016-03-04T04:56:26.286Z,87.24
2016-03-04T04:57:19.071Z,87.14
2016-03-04T04:58:19.041Z,87.28
2016-03-04T04:59:19.060Z,87.43
2016-03-04T05:00:19.046Z,87.24
2016-03-04T05:01:19.065Z,87.14
2016-03-04T05:02:19.051Z,87.62
2016-03-04T05:03:19.039Z,87.52
2016-03-04T05:04:19.043Z,87.05
2016-03-04T05:05:19.045Z,87.9
2016-03-04T05:06:19.032Z,87.9
2016-03-04T05:07:19.050Z,87.9
2016-03-04T05:08:19.037Z,87.9
2016-03-04T05:09:19.024Z,88.18
2016-03-04T05:10:19.027Z,87.8
2016-03-04T05:11:19.029Z,87.09
2016-03-04T05:12:19.032Z,87.24
2016-03-04T05:13:19.019Z,87.56
2016-03-04T05:14:19.037Z,87.52
2016-03-04T05:15:19.039Z,87.14
2016-03-04T05:16:19.028Z,87.43
2016-03-04T05:17:19.031Z,87.43
2016-03-04T05:18:19.033Z,87.05
2016-03-04T05:19:19.020Z,88.04
2016-03-04T05:20:19.038Z,87.99
2016-03-04T05:21:19.010Z,87.52
2016-03-04T05:22:19.028Z,87.8
2016-03-04T05:23:19.016Z,87.8
2016-03-04T05:24:19.018Z,87.9
2016-03-04T05:25:19.005Z,87.9
2016-03-04T05:26:19.023Z,87.99
2016-03-04T05:27:19.010Z,88.18
2016-03-04T05:28:19.012Z,87.99
2016-03-04T05:29:19.016Z,88.37
2016-03-04T05:30:19.019Z,88.37
2016-03-04T05:31:19.005Z,88.37
2016-03-04T05:32:19.008Z,88.84
2016-03-04T05:33:19.010Z,88.56
2016-03-04T05:34:18.998Z,88.56
2016-03-04T05:35:19.001Z,88.56
2016-03-04T05:36:19.003Z,88.46
2016-03-04T05:37:19.006Z,88.28
2016-03-04T05:38:18.993Z,88.28
2016-03-04T05:39:19.011Z,89.03
2016-03-04T05:40:18.982Z,89.03
2016-03-04T05:41:19.016Z,88.65
2016-03-04T05:42:18.988Z,88.84
2016-03-04T05:43:18.991Z,88.56
2016-03-04T05:44:18.993Z,89.22
2016-03-04T05:45:18.981Z,89.22
2016-03-04T05:46:18.983Z,89.22
2016-03-04T05:47:18.986Z,89.12
2016-03-04T05:48:19.003Z,89.22
2016-03-04T05:49:18.975Z,89.12
2016-03-04T05:50:18.994Z,89.22
2016-03-04T05:51:18.981Z,89.03
2016-03-04T05:52:18.968Z,89.12
2016-03-04T05:53:18.986Z,88.93
2016-03-04T05:54:18.988Z,89.22
2016-03-04T05:55:18.977Z,89.59
2016-03-04T05:56:18.979Z,89.5
2016-03-04T05:57:18.982Z,89.97
2016-03-04T05:58:18.969Z,89.88
2016-03-04T05:59:18.971Z,89.64
2016-03-04T06:00:18.974Z,89.83
2016-03-04T06:01:18.960Z,90.02
2016-03-04T06:02:18.963Z,90.02
2016-03-04T06:03:18.966Z,89.73
2016-03-04T06:04:18.954Z,89.64
2016-03-04T06:05:18.957Z,90.11
2016-03-04T06:06:18.959Z,90.21
2016-03-04T06:07:18.962Z,90.02
2016-03-04T06:08:18.961Z,90.21
2016-03-04T06:09:18.936Z,90.49
2016-03-04T06:10:18.926Z,90.96
2016-03-04T06:11:18.916Z,90.59
2016-03-04T06:12:18.906Z,91.15
2016-03-04T06:13:18.881Z,91.15
2016-03-04T06:14:18.879Z,90.49
2016-03-04T06:15:18.877Z,91.06
2016-03-04T06:16:18.861Z,91.44
2016-03-04T06:17:18.859Z,91.48
2016-03-04T06:18:18.858Z,92.05
2016-03-04T06:19:18.859Z,92.43
2016-03-04T06:20:18.860Z,92.8
2016-03-04T06:21:18.861Z,93.28
2016-03-04T06:22:18.846Z,93.32
2016-03-04T06:23:18.832Z,93.61
2016-03-04T06:24:18.834Z,93.47
2016-03-04T06:25:18.836Z,93.56
2016-03-04T06:26:18.838Z,93.37
2016-03-04T06:27:18.840Z,93.42
2016-03-04T06:28:18.842Z,93.13
2016-03-04T06:29:18.829Z,92.66
2016-03-04T06:30:18.832Z,92.66
2016-03-04T06:31:18.835Z,91.86
2016-03-04T06:32:18.837Z,91.86
2016-03-04T06:33:18.824Z,91.76
2016-03-04T06:34:18.858Z,91.76
2016-03-04T06:35:18.829Z,91.19
2016-03-04T06:36:18.832Z,91.38
2016-03-04T06:37:18.820Z,91.14
2016-03-04T06:38:18.822Z,90.29
2016-03-04T06:39:18.825Z,89.72
2016-03-04T06:40:18.828Z,89.2
2016-03-04T06:41:18.830Z,89.2
2016-03-04T06:42:18.817Z,88.16
2016-03-04T06:43:18.836Z,87.59
2016-03-04T06:44:18.823Z,86.64
2016-03-04T06:45:18.825Z,85.41
2016-03-04T06:46:18.812Z,83.61
2016-03-04T06:47:18.830Z,81.81
2016-03-04T06:48:18.817Z,81.05
2016-03-04T06:49:18.819Z,80.29
2016-03-04T06:50:18.823Z,79.06
2016-03-04T06:51:18.826Z,78.3
2016-03-04T06:52:18.828Z,77.35
2016-03-04T06:53:18.831Z,75.64
2016-03-04T06:54:18.833Z,74.54
2016-03-04T06:55:18.821Z,73.5
2016-03-04T06:56:18.839Z,72.27
2016-03-04T06:57:18.841Z,71.32
2016-03-04T06:58:18.829Z,70.56
2016-03-04T06:59:18.832Z,68.13
2016-03-04T07:00:18.834Z,66.89
2016-03-04T07:01:18.852Z,65.75
2016-03-04T07:02:18.823Z,65
2016-03-04T07:03:18.827Z,64.52
2016-03-04T07:04:18.829Z,64.33
2016-03-04T07:05:18.832Z,63.04
2016-03-04T07:06:19.945Z,62.37
2016-03-04T07:07:19.479Z,61.23
2016-03-04T07:08:19.231Z,59.74
2016-03-04T07:09:19.327Z,58.89
2016-03-04T07:10:19.298Z,57.46
2016-03-04T07:11:19.614Z,56.73
2016-03-04T07:12:19.914Z,54.96
2016-03-04T07:13:19.917Z,52.2
2016-03-04T07:14:19.904Z,51.72
2016-03-04T07:15:19.969Z,51.62
2016-03-04T07:16:19.908Z,50.7
2016-03-04T07:17:19.911Z,50.6
2016-03-04T07:18:19.914Z,50.04
2016-03-04T07:19:19.916Z,49.2
2016-03-04T07:20:19.919Z,46.94
2016-03-04T07:21:18.860Z,45.25
2016-03-04T07:22:19.909Z,44.87
2016-03-04T07:23:19.927Z,44.3
2016-03-04T07:24:19.914Z,43.18
2016-03-04T07:25:19.964Z,42.7
2016-03-04T07:26:19.904Z,41.39
2016-03-04T07:27:19.922Z,40.44
2016-03-04T07:28:19.940Z,39.69
2016-03-04T07:29:19.912Z,39.4
2016-03-04T07:30:19.774Z,39.29
2016-03-04T07:31:19.417Z,38.81
2016-03-04T07:32:19.327Z,39.19
2016-03-04T07:33:19.376Z,39.67
2016-03-04T07:34:19.379Z,40.22
2016-03-04T07:35:19.632Z,40.03
2016-03-04T07:36:19.743Z,40.15
2016-03-04T07:37:19.965Z,39.86
2016-03-04T07:38:19.983Z,39
2016-03-04T07:39:19.987Z,39.19
2016-03-04T07:40:19.989Z,39.12
2016-03-04T07:41:20.070Z,38.93
2016-03-04T07:42:18.916Z,37.97
2016-03-04T07:43:18.919Z,37.32
2016-03-04T07:44:18.922Z,37.32
2016-03-04T07:45:18.970Z,36.94
2016-03-04T07:46:18.928Z,37.02
2016-03-04T07:47:18.930Z,37.02
2016-03-04T07:48:18.932Z,38.05
2016-03-04T07:49:18.935Z,38.43
2016-03-04T07:50:18.938Z,39.17
2016-03-04T07:51:18.940Z,39.94
2016-03-04T07:52:18.943Z,40.97
2016-03-04T07:53:18.945Z,41.16
2016-03-04T07:54:18.949Z,41.25
2016-03-04T07:55:18.951Z,42.2
2016-03-04T07:56:18.954Z,42.56
2016-03-04T07:57:18.972Z,42.85
2016-03-04T07:58:18.974Z,43.04
2016-03-04T07:59:18.977Z,42.68
2016-03-04T08:00:18.996Z,42.11
2016-03-04T08:01:18.983Z,41.82
2016-03-04T08:02:19.001Z,41.36
2016-03-04T08:03:18.987Z,41.08
2016-03-04T08:04:18.991Z,41.17
2016-03-04T08:05:18.993Z,40.8
2016-03-04T08:06:18.996Z,40.7
2016-03-04T08:07:19.015Z,40.77
2016-03-04T08:08:19.001Z,40.77
2016-03-04T08:09:19.020Z,40.8
2016-03-04T08:10:19.006Z,40.7
2016-03-04T08:11:19.026Z,40.12
2016-03-04T08:12:19.028Z,39.48
2016-03-04T08:13:19.030Z,39
2016-03-04T08:14:19.033Z,38.54
2016-03-04T08:15:19.083Z,37.78
2016-03-04T08:16:19.039Z,37.21
2016-03-04T08:17:19.057Z,36.44
2016-03-04T08:18:19.045Z,35.22
2016-03-04T08:19:19.062Z,34.17
2016-03-04T08:20:19.127Z,33.7
2016-03-04T08:21:19.067Z,33.79
2016-03-04T08:22:19.070Z,33.98
2016-03-04T08:23:19.089Z,34.44
2016-03-04T08:24:19.091Z,34.44
2016-03-04T08:25:19.078Z,34.82
2016-03-04T08:26:19.080Z,34.75
2016-03-04T08:27:19.083Z,34.36
2016-03-04T08:28:19.086Z,34.84
2016-03-04T08:29:19.089Z,34.94
2016-03-04T08:30:19.091Z,35.41
2016-03-04T08:31:19.110Z,35.41
2016-03-04T08:32:19.160Z,35.51
2016-03-04T08:33:19.115Z,36.16
2016-03-04T08:34:19.118Z,36.9
2016-03-04T08:35:19.121Z,37
2016-03-04T08:36:19.123Z,38.12
2016-03-04T08:37:19.142Z,39.36
2016-03-04T08:38:19.145Z,40.3
2016-03-04T08:39:19.148Z,40.77
2016-03-04T08:40:19.150Z,41.25
2016-03-04T08:41:19.153Z,42.47
2016-03-04T08:42:19.156Z,43.32
2016-03-04T08:43:19.158Z,43.3
2016-03-04T08:44:19.161Z,43.68
2016-03-04T08:45:19.164Z,44.33
2016-03-04T08:46:19.166Z,45.09
2016-03-04T08:47:19.184Z,45.73
2016-03-04T08:48:19.172Z,45.73
2016-03-04T08:49:19.190Z,45.54
2016-03-04T08:50:19.192Z,46.01
2016-03-04T08:51:19.195Z,46.88
2016-03-04T08:52:19.198Z,46.66
2016-03-04T08:53:19.200Z,47.61
2016-03-04T08:54:19.234Z,47.61
2016-03-04T08:55:19.206Z,48.27
2016-03-04T08:56:19.224Z,48.85
2016-03-04T08:57:19.211Z,48.94
2016-03-04T08:58:19.230Z,48.18
2016-03-04T08:59:19.216Z,48.66
2016-03-04T09:00:19.235Z,48.46
2016-03-04T09:01:19.238Z,48.85
2016-03-04T09:02:19.256Z,48.94
2016-03-04T09:03:19.243Z,49.89
2016-03-04T09:04:19.245Z,49.68
2016-03-04T09:05:19.249Z,50.15
2016-03-04T09:06:19.252Z,50.15
2016-03-04T09:07:19.270Z,50.53
2016-03-04T09:08:19.273Z,50.05
2016-03-04T09:09:19.260Z,50.15
2016-03-04T09:10:19.263Z,50.05
2016-03-04T09:11:19.281Z,49.87
2016-03-04T09:12:19.283Z,50.24
2016-03-04T09:13:19.287Z,50.81
2016-03-04T09:14:19.289Z,50.62
2016-03-04T09:15:19.292Z,50.05
2016-03-04T09:16:19.294Z,49.77
2016-03-04T09:17:19.297Z,49.68
2016-03-04T09:18:19.299Z,49.87
2016-03-04T09:19:19.302Z,49.29
2016-03-04T09:20:19.320Z,49.01
2016-03-04T09:21:19.308Z,48.54
2016-03-04T09:22:19.310Z,47.89
2016-03-04T09:23:19.313Z,47.42
2016-03-04T09:24:19.316Z,47.13
2016-03-04T09:25:19.334Z,46.85
2016-03-04T09:26:19.337Z,46.85
2016-03-04T09:27:19.340Z,46.75
2016-03-04T09:28:19.342Z,46.75
2016-03-04T09:29:19.345Z,45.92
2016-03-04T09:30:19.348Z,44.59
2016-03-04T09:31:19.350Z,43.93
2016-03-04T09:32:19.354Z,43.47
2016-03-04T09:33:19.356Z,44.13
2016-03-04T09:34:19.358Z,44.02
2016-03-04T09:35:19.361Z,43.95
2016-03-04T09:36:19.364Z,43.57
2016-03-04T09:37:19.383Z,42.61
2016-03-04T09:38:19.369Z,41.57
2016-03-04T09:39:19.372Z,42.33
2016-03-04T09:40:19.375Z,42.61
2016-03-04T09:41:19.378Z,42.99
2016-03-04T09:42:19.396Z,43.19
2016-03-04T09:43:19.383Z,43.19
2016-03-04T09:44:19.401Z,42.99
2016-03-04T09:45:19.404Z,42.99
2016-03-04T09:46:19.407Z,43.66
2016-03-04T09:47:19.409Z,43.66
2016-03-04T09:48:19.412Z,43.95
2016-03-04T09:49:19.415Z,43.54
2016-03-04T09:50:19.418Z,44.21
2016-03-04T09:51:19.421Z,44.21
2016-03-04T09:52:19.423Z,44.21
2016-03-04T09:53:19.425Z,43.54
2016-03-04T09:54:19.429Z,43.35
2016-03-04T09:55:19.431Z,43.64
2016-03-04T09:56:19.433Z,43.64
2016-03-04T09:57:19.437Z,44.21
2016-03-04T09:58:19.454Z,44.12
2016-03-04T09:59:19.457Z,44.38
2016-03-04T10:00:19.460Z,43.8
2016-03-04T10:01:19.447Z,44.19
2016-03-04T10:02:19.465Z,44.67
2016-03-04T10:03:19.468Z,45.33
2016-03-04T10:04:19.455Z,45.42
2016-03-04T10:05:19.472Z,45.04
2016-03-04T10:06:19.476Z,44.85
2016-03-04T10:07:19.478Z,44.85
2016-03-04T10:08:19.481Z,44.57
2016-03-04T10:09:19.484Z,44.19
2016-03-04T10:10:19.486Z,44.28
2016-03-04T10:11:19.489Z,44.09
2016-03-04T10:12:19.508Z,44.38
2016-03-04T10:13:19.494Z,44.38
2016-03-04T10:14:19.497Z,44.38
2016-03-04T10:15:19.516Z,44.19
2016-03-04T10:16:19.502Z,44.28
2016-03-04T10:17:19.522Z,44.09
2016-03-04T10:18:19.524Z,44
2016-03-04T10:19:19.526Z,43.64
2016-03-04T10:20:19.936Z,42.88
2016-03-04T10:21:19.532Z,42.97
2016-03-04T10:22:19.518Z,42.88
2016-03-04T10:23:19.522Z,42.88
2016-03-04T10:24:19.524Z,43.54
2016-03-04T10:25:19.543Z,43.43
2016-03-04T10:26:19.545Z,44
2016-03-04T10:27:19.532Z,44
2016-03-04T10:28:19.535Z,44.19
2016-03-04T10:29:19.553Z,45.04
2016-03-04T10:30:19.540Z,45.04
2016-03-04T10:31:19.542Z,44.09
2016-03-04T10:32:19.546Z,43.71
2016-03-04T10:33:19.564Z,42.47
2016-03-04T10:34:19.551Z,41.91
2016-03-04T10:35:19.554Z,42.57
2016-03-04T10:36:19.572Z,42.95
2016-03-04T10:37:19.559Z,42.5
2016-03-04T10:38:19.578Z,41.83
2016-03-04T10:39:19.564Z,41.07
2016-03-04T10:40:19.583Z,41.26
2016-03-04T10:41:19.586Z,41.46
2016-03-04T10:42:19.588Z,41.17
2016-03-04T10:43:19.575Z,40.98
2016-03-04T10:44:19.624Z,40.88
2016-03-04T10:45:19.581Z,40.88
2016-03-04T10:46:19.583Z,41.38
2016-03-04T10:47:19.601Z,41.09
2016-03-04T10:48:19.605Z,40.05
2016-03-04T10:49:19.607Z,39.38
2016-03-04T10:50:19.610Z,39.19
2016-03-04T10:51:19.613Z,39.09
2016-03-04T10:52:19.616Z,39.09
2016-03-04T10:53:19.618Z,39.09
2016-03-04T10:54:19.621Z,38.14
2016-03-04T10:55:19.623Z,38.26
2016-03-04T10:56:19.626Z,38.26
2016-03-04T10:57:19.629Z,38.34
2016-03-04T10:58:19.632Z,39.09
2016-03-04T10:59:19.634Z,39.19
2016-03-04T11:00:19.636Z,39
2016-03-04T11:01:19.640Z,39.45
2016-03-04T11:02:19.642Z,40.41
2016-03-04T11:03:19.644Z,40.22
2016-03-04T11:04:19.648Z,40.03
2016-03-04T11:05:19.651Z,40.12
2016-03-04T11:06:19.653Z,40.59
2016-03-04T11:07:19.655Z,40.88
2016-03-04T11:08:19.659Z,40.81
2016-03-04T11:09:19.661Z,41.09
2016-03-04T11:10:19.663Z,40.9
2016-03-04T11:11:19.667Z,41.09
2016-03-04T11:12:19.685Z,40.62
2016-03-04T11:13:19.672Z,39.76
2016-03-04T11:14:19.691Z,39.28
2016-03-04T11:15:19.677Z,38.81
2016-03-04T11:16:19.680Z,38.9
2016-03-04T11:17:19.682Z,39
2016-03-04T11:18:19.685Z,39
2016-03-04T11:19:19.704Z,39.09
2016-03-04T11:20:19.690Z,38.53
2016-03-04T11:21:19.710Z,38.81
2016-03-04T11:22:19.696Z,39.28
2016-03-04T11:23:19.698Z,39.19
2016-03-04T11:24:19.718Z,39.28
2016-03-04T11:25:19.704Z,39.57
2016-03-04T11:26:19.707Z,39
2016-03-04T11:27:19.725Z,39.21
2016-03-04T11:28:19.729Z,38.92
2016-03-04T11:29:19.731Z,38.26
2016-03-04T11:30:19.717Z,38.26
2016-03-04T11:31:19.720Z,37.99
2016-03-04T11:32:19.739Z,38.09
2016-03-04T11:33:19.725Z,37.52
2016-03-04T11:34:19.728Z,36.85
2016-03-04T11:35:19.590Z,35.71
2016-03-04T11:36:19.734Z,35.33
2016-03-04T11:37:19.752Z,35.61
2016-03-04T11:38:19.739Z,35.71
2016-03-04T11:39:19.742Z,35.44
2016-03-04T11:40:19.760Z,35.35
2016-03-04T11:41:19.747Z,35.44
2016-03-04T11:42:19.766Z,34.87
2016-03-04T11:43:19.769Z,34.96
2016-03-04T11:44:19.771Z,35.06
2016-03-04T11:45:19.757Z,35.08
2016-03-04T11:46:19.777Z,34.69
2016-03-04T11:47:19.763Z,34.69
2016-03-04T11:48:19.782Z,34.41
2016-03-04T11:49:19.785Z,34.14
2016-03-04T11:50:19.788Z,33.57
2016-03-04T11:51:19.790Z,33.09
2016-03-04T11:52:19.792Z,33.37
2016-03-04T11:53:19.796Z,33
2016-03-04T11:54:19.798Z,32.9
2016-03-04T11:55:19.800Z,32.61
2016-03-04T11:56:19.803Z,32.61
2016-03-04T11:57:19.806Z,32.61
2016-03-04T11:58:19.809Z,32.42
2016-03-04T11:59:19.795Z,32.42
2016-03-04T12:00:19.860Z,31.87
2016-03-04T12:01:19.832Z,31.48
2016-03-04T12:02:19.819Z,31.28
2016-03-04T12:03:19.822Z,31.66
2016-03-04T12:04:19.825Z,31.28
2016-03-04T12:05:19.828Z,31.47
2016-03-04T12:06:19.830Z,31.47
2016-03-04T12:07:19.833Z,31.48
2016-03-04T12:08:19.835Z,31.48
2016-03-04T12:09:19.838Z,31.48
2016-03-04T12:10:19.841Z,31.68
2016-03-04T12:11:19.844Z,31.5
2016-03-04T12:12:19.846Z,30.74
2016-03-04T12:13:19.849Z,30.74
2016-03-04T12:14:19.852Z,30.74
2016-03-04T12:15:19.854Z,30.45
2016-03-04T12:16:19.903Z,30.45
2016-03-04T12:17:19.860Z,30.16
2016-03-04T12:18:19.863Z,29.97
2016-03-04T12:19:19.865Z,29.59
2016-03-04T12:20:19.868Z,29.22
2016-03-04T12:21:19.871Z,29.13
2016-03-04T12:22:19.873Z,28.84
2016-03-04T12:23:19.876Z,28.55
2016-03-04T12:24:19.878Z,28.08
2016-03-04T12:25:19.882Z,27.79
2016-03-04T12:26:19.899Z,27.89
2016-03-04T12:27:19.886Z,27.89
2016-03-04T12:28:19.890Z,28.27
2016-03-04T12:29:19.892Z,28.27
2016-03-04T12:30:19.895Z,27.98
2016-03-04T12:31:19.912Z,27.79
2016-03-04T12:32:19.901Z,27.98
2016-03-04T12:33:19.903Z,28.27
2016-03-04T12:34:19.905Z,28.06
2016-03-04T12:35:19.909Z,27.59
2016-03-04T12:36:19.910Z,27.78
2016-03-04T12:37:19.914Z,27.78
2016-03-04T12:38:19.916Z,28.25
2016-03-04T12:39:19.919Z,28.44
2016-03-04T12:40:19.922Z,28.35
2016-03-04T12:41:19.924Z,28.35
2016-03-04T12:42:19.927Z,28.16
2016-03-04T12:43:19.929Z,28.16
2016-03-04T12:44:19.933Z,28.44
2016-03-04T12:45:19.950Z,28.44
2016-03-04T12:46:19.969Z,28.35
2016-03-04T12:47:19.940Z,28.54
2016-03-04T12:48:19.943Z,28.54
2016-03-04T12:49:19.946Z,28.44
2016-03-04T12:50:19.948Z,28.64
2016-03-04T12:51:19.966Z,28.44
2016-03-04T12:52:19.954Z,28.05
2016-03-04T12:53:19.957Z,28.14
2016-03-04T12:54:19.959Z,27.57
2016-03-04T12:55:19.962Z,27.84